Portada
METAR-TAF:

METAR-TAF

Aeroports :

Subic Bay, Filipines

latitud: 14-48N, longitud: 120-16E, altitud: 18 m

Observació

L'informe es va fer fa 31 minuts, a les 13:00 UTC
Vent 12 kt del Est
Temperatura 30°C
Humitat 59%
Pressió 1010 hPa
Visibilitat 10 km o més
Escasses núvols a una alçada de 2000 ft

METAR: RPLB 141300Z 08012KT 9999 FEW020 30/21 Q1010 NOSIG RMK A2983

Hora: 21:31 (13:31 UTC)

Pronòstic

L'informe es va fer fa 2 hores i 31 minuts, a les 11:00 UTC
Pronòstic vàlid del 14 a les 12 UTC al 15 a les 12 UTC
Vent 8 kt del Est
Visibilitat 10 km o més
Escasses núvols a una alçada de 2000 ft
Temporalment
l' 14 a les 12 UTC al 14 a les 18 UTC
Vent 12 kt del Est
Escasses núvols a una alçada de 2000 ft
Núvols disperses a una alçada de 30000 ft

TAF: RPLB 141100Z 1412/1512 08008KT 9999 FEW020 TX36/1506Z TN26/1421Z TEMPO 1412/1418 09012KT FEW020 SCT300

Observacions i pronòstics meteorològics de més de 4000 aeroports (METAR i TAF).

Les estacions disponibles són els punts grocs i vermells al mapa.

Posi el ratolí al punt desitjat per veure el nom de l'estació.

Feu clic per veure les observacions i els pronòstics meteorològics.

Per canviar el mapa: feu clic els botons verds amb una creu de color negre per apropar; al botó verd amb un guió per allunyar la imatge; o en les fletxes verdes per a mapes adjacents.


METAR-TAF: